Time;durP1;ratioP1;P1;durP2;ratioP2;P2;SDS_P1;SDS_P2;PMS_P1;PMS_P2;Temp;Humidity;BMP_temperature;BMP_pressure;BME280_temperature;BME280_humidity;BME280_pressure;Samples;Min_cycle;Max_cycle;Signal;HPM_P1;HPM_P2
2021/11/06 00:00:52;;;;;;;47.73;28.63;;;;;;;9.69;100.00;100816.70;1758995;81;21093;-69
2021/11/06 00:03:19;;;;;;;46.23;28.12;;;;;;;9.70;100.00;100810.28;1747451;81;21075;-70
2021/11/06 00:05:46;;;;;;;42.93;27.67;;;;;;;9.68;100.00;100810.45;1751931;82;21082;-70
2021/11/06 00:08:13;;;;;;;43.63;27.43;;;;;;;9.68;100.00;100813.16;1767185;80;20963;-70
2021/11/06 00:10:40;;;;;;;48.03;29.73;;;;;;;9.69;100.00;100812.65;1775389;80;21038;-71
2021/11/06 00:13:07;;;;;;;47.50;28.60;;;;;;;9.69;100.00;100814.00;1768403;80;21005;-70
2021/11/06 00:15:36;;;;;;;49.43;29.37;;;;;;;9.69;100.00;100810.79;1744466;81;21102;-69
2021/11/06 00:18:04;;;;;;;48.97;29.13;;;;;;;9.72;100.00;100822.30;1751791;81;21513;-70
2021/11/06 00:20:32;;;;;;;48.87;29.73;;;;;;;9.72;100.00;100811.02;1749975;82;21090;-69
2021/11/06 00:22:58;;;;;;;49.10;30.97;;;;;;;9.73;100.00;100813.20;1745828;81;21019;-71
2021/11/06 00:25:25;;;;;;;49.10;30.17;;;;;;;9.73;100.00;100811.34;1752396;81;20968;-70
2021/11/06 00:27:51;;;;;;;51.57;31.10;;;;;;;9.74;100.00;100806.31;1752081;82;21501;-70
2021/11/06 00:30:18;;;;;;;46.47;29.20;;;;;;;9.75;100.00;100797.19;1745245;82;21038;-69
2021/11/06 00:32:45;;;;;;;52.27;31.75;;;;;;;9.78;100.00;100798.26;1748049;81;21051;-69
2021/11/06 00:35:14;;;;;;;50.90;31.03;;;;;;;9.80;100.00;100797.60;1756019;81;21110;-70
2021/11/06 00:37:41;;;;;;;52.27;30.13;;;;;;;9.84;100.00;100795.45;1762814;81;21494;-70
2021/11/06 00:40:09;;;;;;;51.03;29.30;;;;;;;9.86;100.00;100792.11;1762438;81;21070;-70
2021/11/06 00:42:37;;;;;;;51.20;31.33;;;;;;;9.87;100.00;100789.26;1762746;81;21031;-69
2021/11/06 00:45:05;;;;;;;49.48;29.80;;;;;;;9.86;100.00;100794.33;1757124;81;21148;-70
2021/11/06 00:47:32;;;;;;;55.03;32.10;;;;;;;9.86;100.00;100801.08;1757061;81;21087;-70
2021/11/06 00:49:58;;;;;;;51.70;31.20;;;;;;;9.87;100.00;100802.77;1762733;81;21505;-70
2021/11/06 00:52:24;;;;;;;53.70;32.17;;;;;;;9.89;100.00;100796.71;1756649;81;21505;-69
2021/11/06 00:54:51;;;;;;;54.42;32.80;;;;;;;9.92;100.00;100798.28;1749812;82;21063;-70
2021/11/06 00:57:18;;;;;;;52.63;32.77;;;;;;;9.95;100.00;100791.23;1762487;81;21035;-70
2021/11/06 00:59:44;;;;;;;49.07;32.00;;;;;;;9.98;100.00;100781.97;1762710;81;21532;-70
2021/11/06 01:02:11;;;;;;;46.20;29.77;;;;;;;10.00;100.00;100784.02;1762495;81;20975;-70
2021/11/06 01:04:39;;;;;;;49.27;31.30;;;;;;;10.03;100.00;100786.44;1756574;81;21036;-70
2021/11/06 01:07:06;;;;;;;51.03;31.47;;;;;;;10.06;100.00;100784.79;1750811;81;21467;-70
2021/11/06 01:09:33;;;;;;;52.77;33.20;;;;;;;10.06;100.00;100788.33;1694970;83;21385;-70
2021/11/06 01:11:59;;;;;;;56.17;33.03;;;;;;;10.04;100.00;100788.98;1742502;82;21002;-70
2021/11/06 01:14:26;;;;;;;50.43;31.63;;;;;;;10.05;100.00;100776.32;1729252;83;21508;-70
2021/11/06 01:16:52;;;;;;;52.07;33.73;;;;;;;10.07;100.00;100777.02;1757864;81;21021;-69
2021/11/06 01:19:19;;;;;;;49.70;32.47;;;;;;;10.06;100.00;100778.03;1763270;81;21025;-69
2021/11/06 01:21:46;;;;;;;51.17;32.23;;;;;;;10.08;100.00;100778.22;1746279;81;21516;-70
2021/11/06 01:24:12;;;;;;;51.00;31.90;;;;;;;10.12;100.00;100771.17;1751315;82;21555;-70
2021/11/06 01:26:39;;;;;;;51.90;31.73;;;;;;;10.11;100.00;100769.45;1748864;82;21500;-69
2021/11/06 01:29:06;;;;;;;51.33;32.43;;;;;;;10.11;100.00;100769.45;1756971;82;21021;-69
2021/11/06 01:31:34;;;;;;;49.10;31.07;;;;;;;10.11;100.00;100770.33;1747746;82;21037;-70
2021/11/06 01:34:01;;;;;;;49.93;33.07;;;;;;;10.10;100.00;100774.02;1763746;81;20981;-70
2021/11/06 01:36:27;;;;;;;48.42;32.35;;;;;;;10.09;100.00;100766.91;1762591;81;21496;-70
2021/11/06 01:38:54;;;;;;;55.53;33.67;;;;;;;10.11;100.00;100768.11;1761682;80;21061;-70
2021/11/06 01:41:20;;;;;;;53.37;32.90;;;;;;;10.11;100.00;100766.28;1750640;82;21018;-70
2021/11/06 01:43:48;;;;;;;53.03;33.50;;;;;;;10.11;100.00;100762.70;1724927;83;21042;-70
2021/11/06 01:46:15;;;;;;;52.15;33.00;;;;;;;10.12;100.00;100768.47;1751977;82;21539;-70
2021/11/06 01:48:42;;;;;;;51.63;31.60;;;;;;;10.09;100.00;100768.25;1753365;81;21016;-70
2021/11/06 01:51:09;;;;;;;47.53;30.90;;;;;;;10.11;100.00;100758.66;1753555;81;21022;-69
2021/11/06 01:53:36;;;;;;;50.83;32.90;;;;;;;10.13;100.00;100758.87;1757279;81;21039;-71
2021/11/06 01:56:03;;;;;;;50.45;32.10;;;;;;;10.13;100.00;100760.70;1760283;81;21575;-71
2021/11/06 01:58:30;;;;;;;48.10;30.93;;;;;;;10.12;100.00;100752.26;1756656;80;21041;-70
2021/11/06 02:00:57;;;;;;;49.40;31.20;;;;;;;10.11;100.00;100753.25;1750061;81;21037;-71
2021/11/06 02:03:24;;;;;;;48.63;31.07;;;;;;;10.09;100.00;100747.98;1722226;83;21091;-70
2021/11/06 02:05:51;;;;;;;47.90;31.20;;;;;;;10.08;100.00;100751.70;1750207;81;21480;-70
2021/11/06 02:08:18;;;;;;;44.90;30.32;;;;;;;10.10;100.00;100748.86;1754352;81;21503;-70
2021/11/06 02:10:46;;;;;;;48.10;31.67;;;;;;;10.10;100.00;100732.14;1751872;81;21038;-70
2021/11/06 02:13:13;;;;;;;48.87;31.13;;;;;;;10.10;100.00;100717.78;1737304;81;21522;-70
2021/11/06 02:15:39;;;;;;;50.03;30.70;;;;;;;10.10;100.00;100726.73;1752053;81;21475;-71
2021/11/06 02:18:06;;;;;;;49.43;32.17;;;;;;;10.11;100.00;100723.52;1750094;81;21022;-70
2021/11/06 02:20:33;;;;;;;47.15;29.50;;;;;;;10.10;100.00;100726.73;1748649;81;21059;-71
2021/11/06 02:23:00;;;;;;;47.37;30.53;;;;;;;10.07;100.00;100721.63;1748617;81;21686;-71
2021/11/06 02:25:27;;;;;;;47.13;30.27;;;;;;;10.11;100.00;100715.41;1745937;82;21585;-70
2021/11/06 02:27:54;;;;;;;45.53;29.20;;;;;;;10.12;100.00;100708.52;1752736;81;21014;-70
2021/11/06 02:30:22;;;;;;;45.20;30.45;;;;;;;10.13;100.00;100708.88;1752441;82;21039;-70
2021/11/06 02:32:52;;;;;;;45.48;30.00;;;;;;;10.17;100.00;100701.31;1752169;82;21012;-69
2021/11/06 02:35:20;;;;;;;45.83;29.70;;;;;;;10.15;100.00;100696.05;1752091;82;21058;-70
2021/11/06 02:37:47;;;;;;;46.47;28.83;;;;;;;10.16;100.00;100698.25;1751865;82;21000;-70
2021/11/06 02:40:14;;;;;;;47.90;28.60;;;;;;;10.18;100.00;100702.99;1752116;82;21191;-70
2021/11/06 02:42:41;;;;;;;44.98;30.70;;;;;;;10.20;100.00;100695.09;1750879;81;21014;-70
2021/11/06 02:45:09;;;;;;;45.95;28.23;;;;;;;10.21;100.00;100692.73;1762828;81;21062;-69
2021/11/06 02:47:37;;;;;;;48.42;29.35;;;;;;;10.23;100.00;100679.94;1753643;81;21059;-70
2021/11/06 02:50:05;;;;;;;46.37;30.20;;;;;;;10.23;100.00;100683.99;1744983;81;21064;-71
2021/11/06 02:52:32;;;;;;;44.80;29.87;;;;;;;10.24;100.00;100681.62;1750382;82;21036;-70
2021/11/06 02:54:59;;;;;;;45.67;30.30;;;;;;;10.24;100.00;100678.91;1745816;81;21064;-69
2021/11/06 02:57:25;;;;;;;47.03;30.77;;;;;;;10.26;100.00;100680.12;1751529;82;21044;-69
2021/11/06 02:59:54;;;;;;;48.75;30.17;;;;;;;10.25;100.00;100679.28;1750806;82;21048;-70
2021/11/06 03:02:20;;;;;;;45.30;30.13;;;;;;;10.24;100.00;100681.62;1751304;82;21051;-70
2021/11/06 03:04:47;;;;;;;45.92;29.72;;;;;;;10.22;100.00;100678.22;1751862;82;21580;-70
2021/11/06 03:07:15;;;;;;;45.48;30.25;;;;;;;10.23;100.00;100678.59;1745226;82;21018;-71
2021/11/06 03:09:41;;;;;;;46.40;29.67;;;;;;;10.25;100.00;100664.41;1734413;83;21513;-70
2021/11/06 03:12:10;;;;;;;44.38;28.98;;;;;;;10.25;100.00;100648.20;1735248;82;21034;-69
2021/11/06 03:14:37;;;;;;;42.50;27.70;;;;;;;10.25;100.00;100646.84;1752082;82;21439;-70
2021/11/06 03:17:04;;;;;;;42.50;28.43;;;;;;;10.25;100.00;100644.62;1756393;81;21019;-70
2021/11/06 03:19:31;;;;;;;46.10;29.77;;;;;;;10.25;100.00;100653.60;1744247;81;21541;-70
2021/11/06 03:21:59;;;;;;;45.33;30.63;;;;;;;10.28;100.00;100659.19;1734977;82;21478;-70
2021/11/06 03:24:25;;;;;;;47.33;30.10;;;;;;;10.26;100.00;100652.58;1750941;82;21506;-71
2021/11/06 03:26:54;;;;;;;48.48;31.23;;;;;;;10.26;100.00;100647.69;1749303;81;21497;-70
2021/11/06 03:29:20;;;;;;;49.18;31.37;;;;;;;10.24;100.00;100648.34;1754860;82;21062;-69
2021/11/06 03:31:47;;;;;;;48.80;31.40;;;;;;;10.23;100.00;100651.56;1748547;81;21549;-68
2021/11/06 03:34:14;;;;;;;51.65;32.98;;;;;;;10.21;100.00;100645.43;1747022;82;21083;-68
2021/11/06 03:36:41;;;;;;;49.00;33.02;;;;;;;10.20;100.00;100652.37;1753971;81;21032;-69
2021/11/06 03:39:08;;;;;;;46.30;31.55;;;;;;;10.16;100.00;100645.04;1747978;82;21470;-70
2021/11/06 03:41:34;;;;;;;53.37;34.03;;;;;;;10.13;100.00;100653.95;1749378;82;21028;-69
2021/11/06 03:44:01;;;;;;;50.73;33.33;;;;;;;10.10;100.00;100656.48;1743991;81;21044;-69
2021/11/06 03:46:28;;;;;;;48.13;32.23;;;;;;;10.10;100.00;100661.04;1750190;81;21071;-69
2021/11/06 03:48:55;;;;;;;46.55;30.62;;;;;;;10.07;100.00;100656.77;1754099;81;21578;-69
2021/11/06 03:51:21;;;;;;;49.47;32.07;;;;;;;10.06;100.00;100669.44;1751175;81;21015;-69
2021/11/06 03:53:48;;;;;;;44.13;29.90;;;;;;;10.07;100.00;100660.83;1745952;82;21024;-69
2021/11/06 03:56:16;;;;;;;46.37;30.33;;;;;;;10.10;100.00;100657.83;1742292;82;21137;-69
2021/11/06 03:58:43;;;;;;;44.13;28.77;;;;;;;10.10;100.00;100658.34;1753377;82;21083;-69
2021/11/06 04:01:10;;;;;;;41.42;28.40;;;;;;;10.13;100.00;100658.01;1748192;81;21043;-69
2021/11/06 04:03:38;;;;;;;44.37;28.77;;;;;;;10.15;100.00;100654.67;1742312;82;21104;-69
2021/11/06 04:06:05;;;;;;;46.60;30.47;;;;;;;10.15;100.00;100647.92;1750885;82;21039;-70
2021/11/06 04:08:31;;;;;;;42.87;28.10;;;;;;;10.13;100.00;100649.42;1737601;82;21118;-70
2021/11/06 04:11:00;;;;;;;44.43;27.70;;;;;;;10.15;100.00;100655.52;1714449;84;21086;-71
2021/11/06 04:13:27;;;;;;;42.90;28.90;;;;;;;10.16;100.00;100661.77;1750802;82;21067;-70
2021/11/06 04:15:54;;;;;;;40.60;28.02;;;;;;;10.16;100.00;100650.95;1751920;82;21031;-70
2021/11/06 04:18:22;;;;;;;42.23;27.57;;;;;;;10.16;100.00;100642.84;1751871;82;21032;-71
2021/11/06 04:20:50;;;;;;;43.63;28.25;;;;;;;10.16;100.00;100644.20;1749543;82;21533;-70
2021/11/06 04:23:18;;;;;;;44.50;29.87;;;;;;;10.17;100.00;100643.20;1747679;82;21032;-70
2021/11/06 04:25:45;;;;;;;41.43;27.20;;;;;;;10.19;100.00;100646.60;1749703;81;21083;-70
2021/11/06 04:28:13;;;;;;;38.17;25.48;;;;;;;10.17;100.00;100653.51;1762426;81;21008;-70
2021/11/06 04:30:40;;;;;;;39.73;26.40;;;;;;;10.18;100.00;100656.57;1754708;81;21083;-71
2021/11/06 04:33:07;;;;;;;38.30;25.60;;;;;;;10.20;100.00;100658.61;1750391;81;21027;-71
2021/11/06 04:35:35;;;;;;;38.20;25.52;;;;;;;10.21;100.00;100655.40;1751822;82;21517;-70
2021/11/06 04:38:01;;;;;;;38.23;24.80;;;;;;;10.18;100.00;100655.22;1745221;81;21035;-70
2021/11/06 04:40:28;;;;;;;41.83;27.55;;;;;;;10.17;100.00;100648.61;1751107;82;21078;-69
2021/11/06 04:42:55;;;;;;;40.63;26.97;;;;;;;10.16;100.00;100661.77;1750513;82;21078;-69
2021/11/06 04:45:22;;;;;;;38.45;25.88;;;;;;;10.18;100.00;100669.21;1747535;81;21055;-69
2021/11/06 04:47:48;;;;;;;37.47;24.50;;;;;;;10.19;100.00;100673.12;1749067;82;21082;-69
2021/11/06 04:50:15;;;;;;;37.60;25.00;;;;;;;10.21;100.00;100666.21;1752341;81;21012;-69
2021/11/06 04:52:41;;;;;;;36.43;24.63;;;;;;;10.19;100.00;100673.63;1751735;82;21071;-68
2021/11/06 04:55:12;;;;;;;38.08;24.47;;;;;;;10.17;100.00;100679.18;1751591;82;21067;-69
2021/11/06 04:57:39;;;;;;;35.93;24.67;;;;;;;10.18;100.00;100684.08;1752683;81;21087;-70
2021/11/06 05:00:08;;;;;;;37.95;25.97;;;;;;;10.17;100.00;100682.39;1751216;82;21043;-70
2021/11/06 05:02:35;;;;;;;37.63;25.00;;;;;;;10.18;100.00;100685.42;1748626;82;21157;-70
2021/11/06 05:05:02;;;;;;;38.63;26.40;;;;;;;10.17;100.00;100684.59;1751069;82;20999;-70
2021/11/06 05:07:28;;;;;;;36.10;23.50;;;;;;;10.18;100.00;100685.42;1753354;80;20966;-70
2021/11/06 05:09:55;;;;;;;36.10;24.77;;;;;;;10.19;100.00;100680.38;1757488;80;21009;-70
2021/11/06 05:12:23;;;;;;;35.78;24.07;;;;;;;10.19;100.00;100689.33;1755981;82;21022;-68
2021/11/06 05:14:50;;;;;;;36.50;24.60;;;;;;;10.18;100.00;100689.00;1762272;80;21503;-70
2021/11/06 05:17:18;;;;;;;35.27;23.50;;;;;;;10.21;100.00;100689.19;1750999;80;21050;-69
2021/11/06 05:19:49;;;;;;;35.00;22.80;;;;;;;10.19;100.00;100674.47;1764780;80;21038;-69
2021/11/06 05:22:16;;;;;;;34.50;22.95;;;;;;;10.17;100.00;100668.38;1761892;80;21511;-70
2021/11/06 05:24:42;;;;;;;34.43;23.23;;;;;;;10.19;100.00;100681.73;1753827;81;21026;-69
2021/11/06 05:27:09;;;;;;;34.30;22.73;;;;;;;10.21;100.00;100690.53;1752342;81;21042;-70
2021/11/06 05:29:36;;;;;;;36.63;24.17;;;;;;;10.22;100.00;100670.11;1750825;82;21042;-69
2021/11/06 05:32:03;;;;;;;36.37;23.43;;;;;;;10.23;100.00;100661.02;1751811;82;21057;-69
2021/11/06 05:34:30;;;;;;;33.70;23.00;;;;;;;10.22;100.00;100664.71;1754311;80;21583;-68
2021/11/06 05:36:57;;;;;;;33.27;22.70;;;;;;;10.20;100.00;100680.23;1765759;80;21080;-68
2021/11/06 05:39:23;;;;;;;35.45;24.12;;;;;;;10.24;100.00;100684.83;1761326;81;21092;-71
2021/11/06 05:41:50;;;;;;;33.55;22.93;;;;;;;10.23;100.00;100678.59;1760643;81;21053;-69
2021/11/06 05:44:17;;;;;;;37.15;23.77;;;;;;;10.24;100.00;100688.37;1752442;81;21038;-69
2021/11/06 05:46:43;;;;;;;34.75;23.40;;;;;;;10.23;100.00;100697.98;1753824;81;21079;-68
2021/11/06 05:49:11;;;;;;;32.43;21.33;;;;;;;10.23;100.00;100705.61;1752399;82;21030;-69
2021/11/06 05:51:38;;;;;;;34.15;22.48;;;;;;;10.21;100.00;100698.64;1753594;81;21030;-69
2021/11/06 05:54:05;;;;;;;33.57;22.40;;;;;;;10.20;100.00;100693.75;1752820;81;21034;-69
2021/11/06 05:56:31;;;;;;;32.03;21.07;;;;;;;10.21;100.00;100702.19;1758470;80;21567;-70
2021/11/06 05:58:58;;;;;;;29.27;20.00;;;;;;;10.23;100.00;100719.13;1752602;81;21598;-70
2021/11/06 06:01:25;;;;;;;31.63;21.07;;;;;;;10.20;100.00;100719.42;1743866;81;21060;-70
2021/11/06 06:03:52;;;;;;;33.73;21.77;;;;;;;10.20;100.00;100728.04;1750711;82;21045;-69
2021/11/06 06:06:21;;;;;;;32.00;21.27;;;;;;;10.18;100.00;100728.67;1752388;82;21508;-70
2021/11/06 06:08:47;;;;;;;32.00;20.50;;;;;;;10.14;100.00;100736.73;1816343;78;21499;-70
2021/11/06 06:11:15;;;;;;;27.00;18.80;;;;;;;10.04;100.00;100749.81;1821303;79;21569;-68
2021/11/06 06:13:43;;;;;;;30.80;20.37;;;;;;;9.96;100.00;100745.64;1772567;78;21551;-68
2021/11/06 06:16:10;;;;;;;27.90;19.03;;;;;;;9.94;100.00;100744.11;1749572;81;21015;-68
2021/11/06 06:18:37;;;;;;;27.53;19.03;;;;;;;9.90;100.00;100743.55;1751232;81;21563;-65
2021/11/06 06:21:04;;;;;;;31.17;19.97;;;;;;;9.82;100.00;100746.14;1737039;82;21066;-64
2021/11/06 06:23:31;;;;;;;33.37;24.43;;;;;;;9.74;100.00;100751.42;1744368;81;21019;-68
2021/11/06 06:25:58;;;;;;;25.97;17.50;;;;;;;9.66;100.00;100764.33;1738677;81;21520;-65
2021/11/06 06:28:25;;;;;;;27.57;18.57;;;;;;;9.64;100.00;100761.77;1737603;81;21058;-65
2021/11/06 06:30:52;;;;;;;26.87;18.37;;;;;;;9.60;100.00;100756.32;1740481;82;21025;-66
2021/11/06 06:33:19;;;;;;;27.87;19.60;;;;;;;9.61;100.00;100767.97;1740697;81;21089;-67
2021/11/06 06:35:45;;;;;;;29.13;20.53;;;;;;;9.64;100.00;100766.33;1740356;81;21531;-66
2021/11/06 06:38:12;;;;;;;28.63;20.17;;;;;;;9.65;100.00;100771.58;1745553;81;21082;-66
2021/11/06 06:40:38;;;;;;;25.97;18.53;;;;;;;9.67;100.00;100770.09;1740650;81;21015;-66
2021/11/06 06:43:05;;;;;;;30.03;21.47;;;;;;;9.73;100.00;100779.45;1740196;81;21074;-67
2021/11/06 06:45:32;;;;;;;29.93;20.37;;;;;;;9.74;100.00;100773.91;1740812;81;21070;-67
2021/11/06 06:47:59;;;;;;;26.37;17.63;;;;;;;9.77;100.00;100768.18;1746287;81;21053;-67
2021/11/06 06:50:25;;;;;;;28.13;19.57;;;;;;;9.81;100.00;100768.26;1756198;81;21069;-67
2021/11/06 06:52:52;;;;;;;29.83;19.80;;;;;;;9.84;100.00;100781.48;1739074;81;20997;-66
2021/11/06 06:55:19;;;;;;;27.20;19.50;;;;;;;9.84;100.00;100773.38;1743661;82;21024;-69
2021/11/06 06:57:46;;;;;;;27.93;19.57;;;;;;;9.86;100.00;100770.50;1746678;81;21048;-67
2021/11/06 07:00:14;;;;;;;27.20;19.00;;;;;;;9.89;100.00;100776.95;1746526;81;20994;-66
2021/11/06 07:02:43;;;;;;;29.70;20.07;;;;;;;9.93;100.00;100775.66;1773685;80;21006;-67
2021/11/06 07:05:12;;;;;;;30.87;20.90;;;;;;;9.97;100.00;100782.48;1746075;81;21056;-69
2021/11/06 07:07:40;;;;;;;29.72;21.68;;;;;;;9.99;100.00;100772.37;1761932;80;21044;-67
2021/11/06 07:10:07;;;;;;;28.90;20.52;;;;;;;9.99;100.00;100778.28;1725407;83;21046;-67
2021/11/06 07:12:34;;;;;;;26.73;17.15;;;;;;;10.01;100.00;100777.12;1747084;79;21070;-67
2021/11/06 07:15:04;;;;;;;29.50;20.55;;;;;;;10.08;100.00;100770.62;1757878;81;21104;-69
2021/11/06 07:17:30;;;;;;;27.60;17.80;;;;;;;10.12;100.00;100763.91;1759160;81;21274;-68
2021/11/06 07:19:57;;;;;;;29.03;18.60;;;;;;;10.18;100.00;100762.45;1757858;81;21014;-67
2021/11/06 07:22:24;;;;;;;25.67;17.00;;;;;;;10.18;100.00;100757.05;1766437;80;21020;-66
2021/11/06 07:24:51;;;;;;;27.90;17.20;;;;;;;10.21;100.00;100752.70;1754791;80;21092;-67
2021/11/06 07:27:17;;;;;;;27.33;17.00;;;;;;;10.21;100.00;100742.73;1754900;81;21018;-68
2021/11/06 07:29:44;;;;;;;29.30;18.42;;;;;;;10.24;100.00;100726.73;1768668;80;21064;-66
2021/11/06 07:32:11;;;;;;;27.17;16.45;;;;;;;10.31;100.00;100721.56;1766733;80;21081;-67
2021/11/06 07:34:39;;;;;;;28.73;16.42;;;;;;;10.33;100.00;100715.53;1769411;80;20971;-66
2021/11/06 07:37:07;;;;;;;31.68;19.37;;;;;;;10.34;100.00;100705.92;1766845;80;21007;-67
2021/11/06 07:39:34;;;;;;;29.35;18.02;;;;;;;10.42;100.00;100699.73;1757677;80;21031;-68
2021/11/06 07:42:01;;;;;;;31.97;18.73;;;;;;;10.51;100.00;100703.38;1756438;81;20947;-68
2021/11/06 07:44:27;;;;;;;31.35;19.27;;;;;;;10.58;100.00;100690.42;1750922;81;21026;-66
2021/11/06 07:46:54;;;;;;;30.62;18.62;;;;;;;10.66;100.00;100694.20;1748549;81;21102;-68
2021/11/06 07:49:21;;;;;;;27.00;16.77;;;;;;;10.70;100.00;100703.21;1744208;81;20980;-67
2021/11/06 07:51:48;;;;;;;29.32;18.30;;;;;;;10.75;100.00;100694.64;1730249;82;20955;-67
2021/11/06 07:54:15;;;;;;;31.30;19.37;;;;;;;10.75;100.00;100696.84;1723668;82;21066;-67
2021/11/06 07:56:42;;;;;;;31.07;18.95;;;;;;;10.78;100.00;100697.88;1769234;80;21041;-68
2021/11/06 07:59:08;;;;;;;28.73;17.00;;;;;;;10.82;100.00;100701.97;1753744;80;20977;-68
2021/11/06 08:01:36;;;;;;;29.72;17.80;;;;;;;10.85;100.00;100697.24;1746834;81;21002;-66
2021/11/06 08:04:07;;;;;;;30.60;17.92;;;;;;;10.88;100.00;100685.59;1747421;81;21054;-67
2021/11/06 08:06:35;;;;;;;29.63;17.50;;;;;;;10.95;100.00;100693.95;1755604;80;21084;-67
2021/11/06 08:09:05;;;;;;;27.67;15.90;;;;;;;10.96;100.00;100685.67;1757777;80;21103;-68
2021/11/06 08:11:33;;;;;;;29.18;17.02;;;;;;;11.04;100.00;100698.41;1739883;81;21089;-67
2021/11/06 08:14:01;;;;;;;28.02;16.42;;;;;;;11.10;100.00;100703.20;1776911;78;21137;-68
2021/11/06 08:16:27;;;;;;;29.12;17.02;;;;;;;11.17;100.00;100690.73;1752803;80;21045;-67
2021/11/06 08:18:55;;;;;;;29.70;17.55;;;;;;;11.26;100.00;100694.82;1748032;81;21538;-66
2021/11/06 08:21:21;;;;;;;28.02;16.70;;;;;;;11.36;100.00;100698.27;1766556;80;21048;-67
2021/11/06 08:23:48;;;;;;;27.17;16.45;;;;;;;11.43;100.00;100696.62;1750613;80;21026;-67
2021/11/06 08:26:15;;;;;;;27.45;16.67;;;;;;;11.49;100.00;100701.89;1774162;80;21925;-66
2021/11/06 08:28:43;;;;;;;29.75;16.82;;;;;;;11.55;100.00;100705.33;1755177;80;21044;-67
2021/11/06 08:31:11;;;;;;;26.95;16.15;;;;;;;11.54;100.00;100701.78;1768815;80;21038;-68
2021/11/06 08:33:37;;;;;;;25.25;15.45;;;;;;;11.52;100.00;100701.58;1774329;80;21330;-68
2021/11/06 08:36:04;;;;;;;27.35;16.10;;;;;;;11.54;100.00;100701.78;1767234;80;21154;-67
2021/11/06 08:38:33;;;;;;;25.60;15.35;;;;;;;11.58;100.00;100717.20;1762849;80;21013;-65
2021/11/06 08:41:00;;;;;;;25.97;15.78;;;;;;;11.63;100.00;100723.47;1768817;80;20981;-69
2021/11/06 08:43:27;;;;;;;26.50;15.80;;;;;;;11.65;100.00;100712.84;1734322;82;21002;-65
2021/11/06 08:45:56;;;;;;;24.40;14.60;;;;;;;11.70;100.00;100703.69;1756532;81;21046;-65
2021/11/06 08:48:23;;;;;;;25.30;14.90;;;;;;;11.78;100.00;100711.87;1730663;82;21505;-66
2021/11/06 08:50:49;;;;;;;25.57;15.35;;;;;;;11.83;100.00;100714.10;1753426;80;21026;-66
2021/11/06 08:53:16;;;;;;;26.77;15.80;;;;;;;11.88;100.00;100715.82;1744156;80;21008;-67
2021/11/06 08:55:43;;;;;;;26.05;15.53;;;;;;;11.93;100.00;100717.57;1763626;80;21844;-71
2021/11/06 08:58:12;;;;;;;26.73;16.27;;;;;;;11.97;100.00;100712.67;1741116;80;21579;-71
2021/11/06 09:00:42;;;;;;;31.33;19.60;;;;;;;11.99;100.00;100709.77;1753684;81;21011;-71
2021/11/06 09:03:12;;;;;;;26.33;17.48;;;;;;;11.97;100.00;100714.03;1745383;81;21049;-70
2021/11/06 09:05:40;;;;;;;25.65;16.20;;;;;;;11.96;100.00;100714.51;1731564;81;21081;-71
2021/11/06 09:08:07;;;;;;;26.82;17.20;;;;;;;11.95;100.00;100710.12;1732191;81;21041;-69
2021/11/06 09:10:34;;;;;;;28.52;18.05;;;;;;;11.98;100.00;100716.22;1736629;81;21103;-70
2021/11/06 09:13:00;;;;;;;30.55;19.20;;;;;;;12.00;100.00;100706.06;1733428;80;21025;-69
2021/11/06 09:15:28;;;;;;;30.57;17.85;;;;;;;12.00;100.00;100708.77;1728360;81;21029;-71
2021/11/06 09:17:55;;;;;;;29.25;18.32;;;;;;;11.99;100.00;100711.99;1721177;82;21062;-70
2021/11/06 09:20:25;;;;;;;30.72;18.92;;;;;;;11.96;100.00;100711.80;1740063;81;21512;-68
2021/11/06 09:22:54;;;;;;;30.62;19.45;;;;;;;11.92;100.00;100715.02;1728711;81;21429;-68
2021/11/06 09:25:22;;;;;;;29.65;18.35;;;;;;;11.92;100.00;100713.15;1761142;79;20996;-66
2021/11/06 09:27:50;;;;;;;31.62;19.12;;;;;;;11.89;100.00;100716.66;1770845;80;21716;-67
2021/11/06 09:30:17;;;;;;;29.92;19.00;;;;;;;11.91;100.00;100711.44;1758329;80;21010;-68
2021/11/06 09:32:45;;;;;;;29.75;18.90;;;;;;;11.93;100.00;100715.34;1722524;82;21006;-68
2021/11/06 09:35:12;;;;;;;29.70;18.73;;;;;;;11.87;100.00;100712.75;1728698;81;21088;-68
2021/11/06 09:37:41;;;;;;;30.15;18.57;;;;;;;11.81;100.00;100723.39;1728614;81;21049;-69
2021/11/06 09:40:09;;;;;;;32.23;20.48;;;;;;;11.76;100.00;100727.95;1760475;81;21587;-68
2021/11/06 09:42:39;;;;;;;34.63;19.62;;;;;;;11.77;100.00;100730.51;1771859;80;20999;-71
2021/11/06 09:45:08;;;;;;;41.13;25.68;;;;;;;11.80;100.00;100737.97;1763619;80;21476;-68
2021/11/06 09:47:36;;;;;;;36.75;23.70;;;;;;;11.80;100.00;100739.32;1734788;80;21016;-66
2021/11/06 09:50:05;;;;;;;36.70;24.95;;;;;;;11.77;100.00;100737.28;1724907;81;21053;-65
2021/11/06 09:52:31;;;;;;;46.55;28.55;;;;;;;11.81;100.00;100732.87;1746509;80;20954;-66
2021/11/06 09:54:58;;;;;;;33.18;21.42;;;;;;;11.82;100.00;100732.71;1754434;80;21069;-66
2021/11/06 09:57:25;;;;;;;33.10;21.87;;;;;;;11.84;100.00;100737.97;1740276;81;21069;-67
2021/11/06 09:59:51;;;;;;;28.75;19.62;;;;;;;11.85;100.00;100743.23;1735021;81;21002;-65
2021/11/06 10:02:18;;;;;;;29.67;18.45;;;;;;;11.84;100.00;100752.36;1715036;81;21462;-67
2021/11/06 10:04:45;;;;;;;27.62;18.05;;;;;;;11.83;100.00;100755.23;1735519;82;21044;-68
2021/11/06 10:07:19;;;;;;;25.57;14.58;;;;;;;11.79;100.00;100756.06;1732926;81;21457;-67
2021/11/06 10:10:07;;;;;;;24.63;14.25;;;;;;;11.78;100.00;100744.38;1730379;81;21521;-67
2021/11/06 10:12:56;;;;;;;22.32;14.60;;;;;;;11.80;100.00;100742.87;1694279;82;21093;-67
2021/11/06 10:15:24;;;;;;;22.48;12.85;;;;;;;11.80;100.00;100736.61;1707769;83;20966;-67
2021/11/06 10:17:51;;;;;;;24.37;14.30;;;;;;;11.81;100.00;100729.67;1720708;83;20979;-67
2021/11/06 10:20:30;;;;;;;21.17;13.00;;;;;;;11.84;100.00;100728.48;1719850;83;21114;-68
2021/11/06 10:23:01;;;;;;;25.12;14.68;;;;;;;11.86;100.00;100725.11;1710577;82;21030;-68
2021/11/06 10:25:29;;;;;;;24.20;14.53;;;;;;;11.83;100.00;100720.88;1697761;83;21228;-67
2021/11/06 10:28:00;;;;;;;22.62;13.48;;;;;;;11.85;100.00;100720.20;1706034;83;21034;-68
2021/11/06 10:30:29;;;;;;;21.10;12.50;;;;;;;11.87;100.00;100719.53;1667690;83;21074;-67
2021/11/06 10:33:12;;;;;;;25.90;13.83;;;;;;;11.87;100.00;100726.30;1677910;83;21248;-68
2021/11/06 10:35:51;;;;;;;25.88;14.45;;;;;;;11.82;100.00;100734.06;1697093;83;21101;-68
2021/11/06 10:38:22;;;;;;;24.98;14.00;;;;;;;11.80;100.00;100717.12;1683813;84;21045;-67
2021/11/06 10:41:02;;;;;;;25.10;14.78;;;;;;;11.76;100.00;100717.12;1647872;86;21014;-66
2021/11/06 10:43:31;;;;;;;27.22;15.50;;;;;;;11.74;100.00;100731.34;1627682;87;21104;-66
2021/11/06 10:45:59;;;;;;;26.25;15.18;;;;;;;11.71;100.00;100720.30;1605746;87;21549;-67
2021/11/06 10:48:30;;;;;;;29.55;17.67;;;;;;;11.71;100.00;100710.82;1655965;86;21094;-67
2021/11/06 10:51:04;;;;;;;34.53;20.48;;;;;;;11.70;100.00;100719.95;1658565;85;21191;-66
2021/11/06 10:53:38;;;;;;;31.50;18.85;;;;;;;11.69;100.00;100716.07;1664028;85;21073;-67
2021/11/06 10:56:32;;;;;;;32.55;19.75;;;;;;;11.69;100.00;100710.14;1659105;85;21595;-68
2021/11/06 10:59:09;;;;;;;30.17;21.77;;;;;;;11.71;100.00;100707.27;1638067;86;20995;-66
2021/11/06 11:01:42;;;;;;;22.58;14.15;;;;;;;11.69;100.00;100706.59;1597728;88;21562;-68
2021/11/06 11:04:14;;;;;;;24.02;13.50;;;;;;;11.64;100.00;100712.48;1645722;86;21592;-69